^^
Saratoga-Weather Station Historical Data
Daily Summary for January 6, 2020 Units:  Both    English   Metric
Daily Weekly Monthly Yearly Custom
  High: Low: Average:
Temperature: 71.8 °F /  22.1 °C 39.2 °F /  4 °C 56.1 °F /  13.4 °C
Dew Point: 43.9 °F /  6.6 °C 34.5 °F /  1.4 °C 38.3 °F /  3.5 °C
Humidity: 86% 26% 55%
Wind Speed: 11mph /  17.7km/h - 1.7mph /  2.7km/h
Wind Gust: 15mph /  24.1km/h - -
Wind- - SW
Pressure: 30.3 in /  1024.7 hPa 30 in /  1017.3 hPa -
Precipitation: 0 in /  0.0 mm    
Historical Graphs
 
 
Tabular Data for January 6, 2020
Time Temperature Dew Point Pressure Wind Wind Speed Wind Gust Humidity Rainfall Rate (Hourly) solar
00:03 49.1 °F /  9.5 °C 37.4 °F /  3 °C 30in /  1017.3hPa Calm     64% 0in /  0.0mm 0 W/m2
00:08 49.1 °F /  9.5 °C 37.4 °F /  3 °C 30in /  1017.3hPa Calm     64% 0in /  0.0mm 0 W/m2
00:13 48.9 °F /  9.4 °C 37.8 °F /  3.2 °C 30in /  1017.3hPa Calm     65% 0in /  0.0mm 0 W/m2
00:19 48.7 °F /  9.3 °C 37.9 °F /  3.3 °C 30in /  1017.3hPa Calm     66% 0in /  0.0mm 0 W/m2
00:24 48.6 °F /  9.2 °C 37.8 °F /  3.2 °C 30in /  1017.3hPa Calm     66% 0in /  0.0mm 0 W/m2
00:29 48.4 °F /  9.1 °C 37.6 °F /  3.1 °C 30in /  1017.3hPa Calm     66% 0in /  0.0mm 0 W/m2
00:34 48.2 °F /  9 °C 37.8 °F /  3.2 °C 30in /  1017.3hPa Calm     67% 0in /  0.0mm 0 W/m2
00:39 47.8 °F /  8.8 °C 37.4 °F /  3 °C 30in /  1017.3hPa Calm     67% 0in /  0.0mm 0 W/m2
00:44 47.8 °F /  8.8 °C 37.8 °F /  3.2 °C 30in /  1017.3hPa Calm     68% 0in /  0.0mm 0 W/m2
00:49 47.7 °F /  8.7 °C 37.6 °F /  3.1 °C 30.1in /  1017.6hPa Calm     68% 0in /  0.0mm 0 W/m2
00:54 47.3 °F /  8.5 °C 37.2 °F /  2.9 °C 30in /  1017.3hPa Calm     68% 0in /  0.0mm 0 W/m2
00:59 47.1 °F /  8.4 °C 37 °F /  2.8 °C 30.1in /  1017.6hPa Calm     68% 0in /  0.0mm 0 W/m2
01:04 47.1 °F /  8.4 °C 37.4 °F /  3 °C 30.1in /  1017.6hPa Calm     69% 0in /  0.0mm 0 W/m2
01:09 46.9 °F /  8.3 °C 37.2 °F /  2.9 °C 30.1in /  1017.6hPa Calm     69% 0in /  0.0mm 0 W/m2
01:14 46.8 °F /  8.2 °C 37.2 °F /  2.9 °C 30.1in /  1017.6hPa Calm     69% 0in /  0.0mm 0 W/m2
01:19 46.8 °F /  8.2 °C 37.6 °F /  3.1 °C 30.1in /  1017.6hPa Calm     70% 0in /  0.0mm 0 W/m2
01:24 46.4 °F /  8 °C 37.2 °F /  2.9 °C 30.1in /  1017.6hPa Calm     70% 0in /  0.0mm 0 W/m2
01:29 46.2 °F /  7.9 °C 37.4 °F /  3 °C 30.1in /  1017.6hPa Calm     71% 0in /  0.0mm 0 W/m2
01:34 46 °F /  7.8 °C 37.2 °F /  2.9 °C 30.1in /  1017.6hPa Calm     71% 0in /  0.0mm 0 W/m2
01:39 45.9 °F /  7.7 °C 37.4 °F /  3 °C 30.1in /  1017.6hPa Calm     72% 0in /  0.0mm 0 W/m2
01:44 45.9 °F /  7.7 °C 37.4 °F /  3 °C 30.1in /  1017.6hPa Calm     72% 0in /  0.0mm 0 W/m2
01:49 45.7 °F /  7.6 °C 37.2 °F /  2.9 °C 30.1in /  1017.6hPa Calm     72% 0in /  0.0mm 0 W/m2
01:54 45.5 °F /  7.5 °C 37 °F /  2.8 °C 30.1in /  1017.6hPa Calm     72% 0in /  0.0mm 0 W/m2
01:59 45.3 °F /  7.4 °C 37.2 °F /  2.9 °C 30.1in /  1017.6hPa Calm     73% 0in /  0.0mm 0 W/m2
02:04 45.1 °F /  7.3 °C 37 °F /  2.8 °C 30.1in /  1017.6hPa Calm     73% 0in /  0.0mm 0 W/m2
02:09 45.1 °F /  7.3 °C 37 °F /  2.8 °C 30.1in /  1017.6hPa Calm     73% 0in /  0.0mm 0 W/m2
02:14 45.1 °F /  7.3 °C 37.4 °F /  3 °C 30.1in /  1017.6hPa Calm     74% 0in /  0.0mm 0 W/m2
02:19 45 °F /  7.2 °C 37.2 °F /  2.9 °C 30.1in /  1017.6hPa Calm     74% 0in /  0.0mm 0 W/m2
02:25 45 °F /  7.2 °C 37.2 °F /  2.9 °C 30.1in /  1017.6hPa Calm     74% 0in /  0.0mm 0 W/m2
02:30 45 °F /  7.2 °C 37.2 °F /  2.9 °C 30.1in /  1017.6hPa Calm     74% 0in /  0.0mm 0 W/m2
02:35 45 °F /  7.2 °C 37.2 °F /  2.9 °C 30.1in /  1017.6hPa Calm     74% 0in /  0.0mm 0 W/m2
02:40 44.8 °F /  7.1 °C 37 °F /  2.8 °C 30.1in /  1017.6hPa Calm     74% 0in /  0.0mm 0 W/m2
02:45 45 °F /  7.2 °C 37.2 °F /  2.9 °C 30.1in /  1017.6hPa Calm     74% 0in /  0.0mm 0 W/m2
02:50 45 °F /  7.2 °C 37.2 °F /  2.9 °C 30.1in /  1017.6hPa Calm     74% 0in /  0.0mm 0 W/m2
02:55 44.8 °F /  7.1 °C 37 °F /  2.8 °C 30.1in /  1017.6hPa Calm     74% 0in /  0.0mm 0 W/m2
03:00 44.8 °F /  7.1 °C 37 °F /  2.8 °C 30.1in /  1017.6hPa Calm     74% 0in /  0.0mm 0 W/m2
03:05 44.8 °F /  7.1 °C 37 °F /  2.8 °C 30.1in /  1017.6hPa Calm     74% 0in /  0.0mm 0 W/m2
03:10 44.6 °F /  7 °C 37.2 °F /  2.9 °C 30.1in /  1017.6hPa Calm     75% 0in /  0.0mm 0 W/m2
03:15 44.4 °F /  6.9 °C 36.7 °F /  2.6 °C 30.1in /  1017.6hPa Calm     74% 0in /  0.0mm 0 W/m2
03:20 44.2 °F /  6.8 °C 36.9 °F /  2.7 °C 30.1in /  1017.6hPa Calm     75% 0in /  0.0mm 0 W/m2
03:25 44.1 °F /  6.7 °C 36.7 °F /  2.6 °C 30.1in /  1017.6hPa Calm     75% 0in /  0.0mm 0 W/m2
03:30 43.9 °F /  6.6 °C 36.5 °F /  2.5 °C 30.1in /  1017.6hPa Calm     75% 0in /  0.0mm 0 W/m2
03:35 43.9 °F /  6.6 °C 36.9 °F /  2.7 °C 30.1in /  1017.6hPa Calm     76% 0in /  0.0mm 0 W/m2
03:40 43.7 °F /  6.5 °C 36.7 °F /  2.6 °C 30.1in /  1017.6hPa Calm     76% 0in /  0.0mm 0 W/m2
03:45 43.5 °F /  6.4 °C 36.5 °F /  2.5 °C 30.1in /  1017.6hPa Calm     76% 0in /  0.0mm 0 W/m2
03:50 43.3 °F /  6.3 °C 36.3 °F /  2.4 °C 30.1in /  1017.6hPa Calm     76% 0in /  0.0mm 0 W/m2
03:55 43.3 °F /  6.3 °C 36.7 °F /  2.6 °C 30.1in /  1017.6hPa Calm     77% 0in /  0.0mm 0 W/m2
04:00 43.3 °F /  6.3 °C 36.7 °F /  2.6 °C 30.1in /  1017.6hPa Calm     77% 0in /  0.0mm 0 W/m2
04:05 43.2 °F /  6.2 °C 36.5 °F /  2.5 °C 30.1in /  1017.6hPa Calm     77% 0in /  0.0mm 0 W/m2
04:10 43.2 °F /  6.2 °C 36.5 °F /  2.5 °C 30.1in /  1017.6hPa Calm     77% 0in /  0.0mm 0 W/m2
04:16 43 °F /  6.1 °C 36.7 °F /  2.6 °C 30.1in /  1018.0hPa Calm     78% 0in /  0.0mm 0 W/m2
04:21 42.8 °F /  6 °C 36.5 °F /  2.5 °C 30.1in /  1017.6hPa Calm     78% 0in /  0.0mm 0 W/m2
04:26 42.8 °F /  6 °C 36.5 °F /  2.5 °C 30.1in /  1017.6hPa Calm     78% 0in /  0.0mm 0 W/m2
04:31 42.6 °F /  5.9 °C 36.3 °F /  2.4 °C 30.1in /  1018.0hPa Calm     78% 0in /  0.0mm 0 W/m2
04:36 42.6 °F /  5.9 °C 36.5 °F /  2.5 °C 30.1in /  1018.0hPa Calm     79% 0in /  0.0mm 0 W/m2
04:41 42.4 °F /  5.8 °C 36.1 °F /  2.3 °C 30.1in /  1018.0hPa Calm     78% 0in /  0.0mm 0 W/m2
04:46 42.4 °F /  5.8 °C 36.1 °F /  2.3 °C 30.1in /  1018.0hPa Calm     78% 0in /  0.0mm 0 W/m2
04:51 42.4 °F /  5.8 °C 36.1 °F /  2.3 °C 30.1in /  1018.0hPa Calm     78% 0in /  0.0mm 0 W/m2
04:56 42.3 °F /  5.7 °C 36.1 °F /  2.3 °C 30.1in /  1018.0hPa Calm     79% 0in /  0.0mm 0 W/m2
05:01 42.1 °F /  5.6 °C 36 °F /  2.2 °C 30.1in /  1018.0hPa Calm     79% 0in /  0.0mm 0 W/m2
05:06 41.9 °F /  5.5 °C 35.8 °F /  2.1 °C 30.1in /  1018.0hPa Calm     79% 0in /  0.0mm 0 W/m2
05:11 41.7 °F /  5.4 °C 36 °F /  2.2 °C 30.1in /  1018.0hPa Calm     80% 0in /  0.0mm 0 W/m2
05:16 41.5 °F /  5.3 °C 35.8 °F /  2.1 °C 30.1in /  1018.0hPa Calm     80% 0in /  0.0mm 0 W/m2
05:21 41.5 °F /  5.3 °C 35.8 °F /  2.1 °C 30.1in /  1018.0hPa Calm     80% 0in /  0.0mm 0 W/m2
05:27 41.4 °F /  5.2 °C 35.6 °F /  2 °C 30.1in /  1018.0hPa Calm     80% 0in /  0.0mm 0 W/m2
05:32 41.4 °F /  5.2 °C 36 °F /  2.2 °C 30.1in /  1018.0hPa Calm     81% 0in /  0.0mm 0 W/m2
05:37 41.2 °F /  5.1 °C 35.8 °F /  2.1 °C 30.1in /  1018.0hPa Calm     81% 0in /  0.0mm 0 W/m2
05:42 41.2 °F /  5.1 °C 35.8 °F /  2.1 °C 30.1in /  1018.0hPa Calm     81% 0in /  0.0mm 0 W/m2
05:47 40.8 °F /  4.9 °C 35.4 °F /  1.9 °C 30.1in /  1018.3hPa Calm     81% 0in /  0.0mm 0 W/m2
05:52 40.6 °F /  4.8 °C 35.2 °F /  1.8 °C 30.1in /  1018.3hPa Calm     81% 0in /  0.0mm 0 W/m2
05:57 40.6 °F /  4.8 °C 35.6 °F /  2 °C 30.1in /  1018.3hPa Calm     82% 0in /  0.0mm 0 W/m2
06:02 40.5 °F /  4.7 °C 35.4 °F /  1.9 °C 30.1in /  1018.3hPa Calm     82% 0in /  0.0mm 0 W/m2
06:07 40.5 °F /  4.7 °C 35.4 °F /  1.9 °C 30.1in /  1018.3hPa Calm     82% 0in /  0.0mm 0 W/m2
06:12 40.3 °F /  4.6 °C 35.2 °F /  1.8 °C 30.1in /  1018.3hPa Calm     82% 0in /  0.0mm 0 W/m2
06:17 40.3 °F /  4.6 °C 35.2 °F /  1.8 °C 30.1in /  1018.3hPa Calm     82% 0in /  0.0mm 0 W/m2
06:22 39.9 °F /  4.4 °C 35.2 °F /  1.8 °C 30.1in /  1018.3hPa Calm     83% 0in /  0.0mm 0 W/m2
06:27 39.9 °F /  4.4 °C 35.2 °F /  1.8 °C 30.1in /  1018.6hPa Calm     83% 0in /  0.0mm 0 W/m2
06:32 39.7 °F /  4.3 °C 35.1 °F /  1.7 °C 30.1in /  1018.6hPa Calm     83% 0in /  0.0mm 0 W/m2
06:37 39.6 °F /  4.2 °C 34.9 °F /  1.6 °C 30.1in /  1018.6hPa Calm     83% 0in /  0.0mm 0 W/m2
06:42 39.6 °F /  4.2 °C 34.9 °F /  1.6 °C 30.1in /  1019.0hPa Calm     83% 0in /  0.0mm 0 W/m2
06:47 39.4 °F /  4.1 °C 34.9 °F /  1.6 °C 30.1in /  1019.0hPa Calm     84% 0in /  0.0mm 0 W/m2
06:52 39.4 °F /  4.1 °C 34.9 °F /  1.6 °C 30.1in /  1019.0hPa Calm     84% 0in /  0.0mm 0 W/m2
06:57 39.4 °F /  4.1 °C 35.2 °F /  1.8 °C 30.1in /  1019.0hPa Calm     85% 0in /  0.0mm 0 W/m2
07:02 39.4 °F /  4.1 °C 35.2 °F /  1.8 °C 30.1in /  1019.0hPa Calm     85% 0in /  0.0mm 5 W/m2
07:07 39.2 °F /  4 °C 35.1 °F /  1.7 °C 30.1in /  1019.0hPa Calm     85% 0in /  0.0mm 5 W/m2
07:12 39.2 °F /  4 °C 35.1 °F /  1.7 °C 30.1in /  1019.0hPa Calm     85% 0in /  0.0mm 9 W/m2
07:17 39.2 °F /  4 °C 35.4 °F /  1.9 °C 30.1in /  1019.0hPa Calm     86% 0in /  0.0mm 11 W/m2
07:22 39.2 °F /  4 °C 35.4 °F /  1.9 °C 30.1in /  1019.3hPa Calm     86% 0in /  0.0mm 12 W/m2
07:27 39.4 °F /  4.1 °C 35.6 °F /  2 °C 30.1in /  1019.3hPa Calm     86% 0in /  0.0mm 14 W/m2
07:32 39.4 °F /  4.1 °C 35.6 °F /  2 °C 30.1in /  1019.3hPa Calm     86% 0in /  0.0mm 18 W/m2
07:37 39.4 °F /  4.1 °C 35.6 °F /  2 °C 30.1in /  1019.3hPa Calm     86% 0in /  0.0mm 19 W/m2
07:42 39.4 °F /  4.1 °C 35.6 °F /  2 °C 30.1in /  1019.6hPa Calm     86% 0in /  0.0mm 21 W/m2
07:47 39.4 °F /  4.1 °C 35.2 °F /  1.8 °C 30.1in /  1019.6hPa Calm     85% 0in /  0.0mm 23 W/m2
07:52 39.4 °F /  4.1 °C 35.6 °F /  2 °C 30.1in /  1019.6hPa Calm     86% 0in /  0.0mm 26 W/m2
07:57 39.6 °F /  4.2 °C 35.8 °F /  2.1 °C 30.1in /  1019.6hPa Calm     86% 0in /  0.0mm 28 W/m2
08:02 39.7 °F /  4.3 °C 36 °F /  2.2 °C 30.1in /  1019.6hPa Calm     86% 0in /  0.0mm 30 W/m2
08:07 39.7 °F /  4.3 °C 36 °F /  2.2 °C 30.1in /  1020.0hPa Calm     86% 0in /  0.0mm 32 W/m2
08:12 40.1 °F /  4.5 °C 36.3 °F /  2.4 °C 30.1in /  1020.0hPa Calm     86% 0in /  0.0mm 134 W/m2
08:17 40.5 °F /  4.7 °C 36.7 °F /  2.6 °C 30.1in /  1020.0hPa Calm     86% 0in /  0.0mm 142 W/m2
08:22 40.8 °F /  4.9 °C 36.7 °F /  2.6 °C 30.1in /  1020.0hPa Calm     85% 0in /  0.0mm 155 W/m2
08:28 41.4 °F /  5.2 °C 37.2 °F /  2.9 °C 30.1in /  1020.0hPa Calm     85% 0in /  0.0mm 167 W/m2
08:33 41.7 °F /  5.4 °C 37.2 °F /  2.9 °C 30.1in /  1020.0hPa Calm     84% 0in /  0.0mm 183 W/m2
08:38 42.8 °F /  6 °C 37.8 °F /  3.2 °C 30.1in /  1020.0hPa ENE 2mph /  3.2km/h 3mph /  4.8km/h 82% 0in /  0.0mm 195 W/m2
08:43 43.9 °F /  6.6 °C 38.1 °F /  3.4 °C 30.1in /  1020.3hPa Calm     80% 0in /  0.0mm 207 W/m2
08:48 44.4 °F /  6.9 °C 38.3 °F /  3.5 °C 30.1in /  1020.3hPa Calm     79% 0in /  0.0mm 218 W/m2
08:53 45 °F /  7.2 °C 38.1 °F /  3.4 °C 30.1in /  1020.3hPa NW 2mph /  3.2km/h 2mph /  3.2km/h 77% 0in /  0.0mm 229 W/m2
08:58 45.3 °F /  7.4 °C 38.1 °F /  3.4 °C 30.1in /  1020.3hPa NNE 0.9mph /  1.4km/h 1mph /  1.6km/h 76% 0in /  0.0mm 244 W/m2
09:03 45.9 °F /  7.7 °C 38.3 °F /  3.5 °C 30.1in /  1020.3hPa Calm   1mph /  1.6km/h 75% 0in /  0.0mm 255 W/m2
09:08 46.6 °F /  8.1 °C 39 °F /  3.9 °C 30.1in /  1020.3hPa NNE 0.9mph /  1.4km/h 2mph /  3.2km/h 75% 0in /  0.0mm 269 W/m2
09:13 47.1 °F /  8.4 °C 39.2 °F /  4 °C 30.1in /  1020.3hPa Calm     74% 0in /  0.0mm 283 W/m2
09:18 47.7 °F /  8.7 °C 39.4 °F /  4.1 °C 30.1in /  1020.3hPa NNE 2mph /  3.2km/h 2mph /  3.2km/h 73% 0in /  0.0mm 299 W/m2
09:23 48.6 °F /  9.2 °C 39.9 °F /  4.4 °C 30.1in /  1020.3hPa Calm   1mph /  1.6km/h 72% 0in /  0.0mm 311 W/m2
09:28 49.3 °F /  9.6 °C 40.3 °F /  4.6 °C 30.1in /  1020.7hPa Calm   1mph /  1.6km/h 71% 0in /  0.0mm 325 W/m2
09:33 50.2 °F /  10.1 °C 40.5 °F /  4.7 °C 30.1in /  1020.3hPa East 2.9mph /  4.7km/h 4mph /  6.4km/h 69% 0in /  0.0mm 81 W/m2
09:38 51.1 °F /  10.6 °C 40.8 °F /  4.9 °C 30.1in /  1020.7hPa Calm   2mph /  3.2km/h 68% 0in /  0.0mm 54 W/m2
09:43 51.6 °F /  10.9 °C 40.6 °F /  4.8 °C 30.1in /  1020.3hPa ENE 2mph /  3.2km/h 3mph /  4.8km/h 66% 0in /  0.0mm 353 W/m2
09:48 52.3 °F /  11.3 °C 41 °F /  5 °C 30.1in /  1020.7hPa East 2mph /  3.2km/h 2mph /  3.2km/h 65% 0in /  0.0mm 378 W/m2
09:53 53.2 °F /  11.8 °C 41.4 °F /  5.2 °C 30.1in /  1020.3hPa East 2.9mph /  4.7km/h 4mph /  6.4km/h 64% 0in /  0.0mm 392 W/m2
09:58 54 °F /  12.2 °C 41.7 °F /  5.4 °C 30.1in /  1020.7hPa ESE 2.9mph /  4.7km/h 4mph /  6.4km/h 63% 0in /  0.0mm 404 W/m2
10:03 54.9 °F /  12.7 °C 41.7 °F /  5.4 °C 30.1in /  1020.7hPa East 2mph /  3.2km/h 3mph /  4.8km/h 61% 0in /  0.0mm 415 W/m2
10:08 55.4 °F /  13 °C 41.4 °F /  5.2 °C 30.1in /  1020.7hPa East 4mph /  6.4km/h 4mph /  6.4km/h 59% 0in /  0.0mm 429 W/m2
10:13 55.9 °F /  13.3 °C 41.9 °F /  5.5 °C 30.1in /  1020.7hPa ENE 2mph /  3.2km/h 4mph /  6.4km/h 59% 0in /  0.0mm 439 W/m2
10:18 56.8 °F /  13.8 °C 42.3 °F /  5.7 °C 30.1in /  1020.7hPa ENE 0.9mph /  1.4km/h 3mph /  4.8km/h 58% 0in /  0.0mm 450 W/m2
10:23 57.7 °F /  14.3 °C 41.7 °F /  5.4 °C 30.1in /  1020.7hPa Calm   3mph /  4.8km/h 55% 0in /  0.0mm 462 W/m2
10:28 57.9 °F /  14.4 °C 41.4 °F /  5.2 °C 30.1in /  1020.7hPa Calm   4mph /  6.4km/h 54% 0in /  0.0mm 476 W/m2
10:33 58.5 °F /  14.7 °C 41.9 °F /  5.5 °C 30.1in /  1020.7hPa NE 2mph /  3.2km/h 4mph /  6.4km/h 54% 0in /  0.0mm 482 W/m2
10:38 59.2 °F /  15.1 °C 42.1 °F /  5.6 °C 30.1in /  1020.7hPa East 2.9mph /  4.7km/h 4mph /  6.4km/h 53% 0in /  0.0mm 494 W/m2
10:43 60.1 °F /  15.6 °C 41.4 °F /  5.2 °C 30.1in /  1020.7hPa West 2.9mph /  4.7km/h 4mph /  6.4km/h 50% 0in /  0.0mm 503 W/m2
10:48 60.6 °F /  15.9 °C 40.3 °F /  4.6 °C 30.1in /  1020.7hPa ESE 2mph /  3.2km/h 6mph /  9.7km/h 47% 0in /  0.0mm 515 W/m2
10:53 61.2 °F /  16.2 °C 41.9 °F /  5.5 °C 30.1in /  1020.7hPa NE 4mph /  6.4km/h 6mph /  9.7km/h 49% 0in /  0.0mm 524 W/m2
10:58 61.2 °F /  16.2 °C 40.8 °F /  4.9 °C 30.2in /  1021.0hPa ENE 2.9mph /  4.7km/h 4mph /  6.4km/h 47% 0in /  0.0mm 531 W/m2
11:03 61.3 °F /  16.3 °C 41.5 °F /  5.3 °C 30.1in /  1020.7hPa ENE 4mph /  6.4km/h 9mph /  14.5km/h 48% 0in /  0.0mm 545 W/m2
11:09 61.2 °F /  16.2 °C 40.3 °F /  4.6 °C 30.2in /  1021.0hPa North 4mph /  6.4km/h 4mph /  6.4km/h 46% 0in /  0.0mm 554 W/m2
11:14 61.9 °F /  16.6 °C 39.7 °F /  4.3 °C 30.2in /  1021.0hPa NW 2mph /  3.2km/h 5mph /  8km/h 44% 0in /  0.0mm 564 W/m2
11:19 62.2 °F /  16.8 °C 38.8 °F /  3.8 °C 30.2in /  1021.0hPa NW 4mph /  6.4km/h 7mph /  11.3km/h 42% 0in /  0.0mm 573 W/m2
11:24 62.6 °F /  17 °C 38.5 °F /  3.6 °C 30.2in /  1021.0hPa NNW 2mph /  3.2km/h 7mph /  11.3km/h 41% 0in /  0.0mm 580 W/m2
11:29 63 °F /  17.2 °C 39.6 °F /  4.2 °C 30.2in /  1021.0hPa WSW 2mph /  3.2km/h 9mph /  14.5km/h 42% 0in /  0.0mm 591 W/m2
11:34 63.1 °F /  17.3 °C 39 °F /  3.9 °C 30.2in /  1021.0hPa ENE 2mph /  3.2km/h 5mph /  8km/h 41% 0in /  0.0mm 598 W/m2
11:39 63.9 °F /  17.7 °C 39 °F /  3.9 °C 30.2in /  1021.0hPa SW 2mph /  3.2km/h 10mph /  16.1km/h 40% 0in /  0.0mm 605 W/m2
11:44 63.9 °F /  17.7 °C 39 °F /  3.9 °C 30.2in /  1021.0hPa West 6mph /  9.7km/h 8mph /  12.9km/h 40% 0in /  0.0mm 610 W/m2
11:49 63.9 °F /  17.7 °C 39 °F /  3.9 °C 30.2in /  1021.0hPa West 10.1mph /  16.3km/h 13mph /  20.9km/h 40% 0in /  0.0mm 615 W/m2
11:54 63.7 °F /  17.6 °C 39.6 °F /  4.2 °C 30.2in /  1021.0hPa WNW 8.1mph /  13km/h 9mph /  14.5km/h 41% 0in /  0.0mm 622 W/m2
11:59 64 °F /  17.8 °C 38.7 °F /  3.7 °C 30.2in /  1021.0hPa NE 2mph /  3.2km/h 12mph /  19.3km/h 39% 0in /  0.0mm 631 W/m2
12:04 64.2 °F /  17.9 °C 38.7 °F /  3.7 °C 30.2in /  1021.0hPa NE 2mph /  3.2km/h 6mph /  9.7km/h 39% 0in /  0.0mm 636 W/m2
12:09 64.4 °F /  18 °C 39.6 °F /  4.2 °C 30.2in /  1021.0hPa NNW 2.9mph /  4.7km/h 6mph /  9.7km/h 40% 0in /  0.0mm 645 W/m2
12:15 64.8 °F /  18.2 °C 38.5 °F /  3.6 °C 30.2in /  1021.0hPa WNW 4mph /  6.4km/h 9mph /  14.5km/h 38% 0in /  0.0mm 647 W/m2
12:20 64.9 °F /  18.3 °C 39.4 °F /  4.1 °C 30.2in /  1021.0hPa WSW 2.9mph /  4.7km/h 6mph /  9.7km/h 39% 0in /  0.0mm 652 W/m2
12:25 64.9 °F /  18.3 °C 38.7 °F /  3.7 °C 30.2in /  1021.0hPa WNW 2.9mph /  4.7km/h 9mph /  14.5km/h 38% 0in /  0.0mm 659 W/m2
12:30 64.8 °F /  18.2 °C 38.5 °F /  3.6 °C 30.2in /  1021.0hPa ENE 4.9mph /  7.9km/h 10mph /  16.1km/h 38% 0in /  0.0mm 664 W/m2
12:35 64.8 °F /  18.2 °C 37.9 °F /  3.3 °C 30.2in /  1021.0hPa SSW 4mph /  6.4km/h 4mph /  6.4km/h 37% 0in /  0.0mm 666 W/m2
12:40 64.9 °F /  18.3 °C 37.4 °F /  3 °C 30.2in /  1021.0hPa North 0.9mph /  1.4km/h 11mph /  17.7km/h 36% 0in /  0.0mm 670 W/m2
12:45 65.5 °F /  18.6 °C 37.8 °F /  3.2 °C 30.2in /  1021.0hPa NE 4.9mph /  7.9km/h 5mph /  8km/h 36% 0in /  0.0mm 679 W/m2
12:50 65.7 °F /  18.7 °C 37.9 °F /  3.3 °C 30.1in /  1020.7hPa NNW 6mph /  9.7km/h 11mph /  17.7km/h 36% 0in /  0.0mm 679 W/m2
12:55 65.7 °F /  18.7 °C 37.9 °F /  3.3 °C 30.1in /  1020.7hPa NNW 6mph /  9.7km/h 15mph /  24.1km/h 36% 0in /  0.0mm 675 W/m2
13:00 65.8 °F /  18.8 °C 38.1 °F /  3.4 °C 30.1in /  1020.7hPa North 4mph /  6.4km/h 9mph /  14.5km/h 36% 0in /  0.0mm 682 W/m2
13:05 66.4 °F /  19.1 °C 38.7 °F /  3.7 °C 30.1in /  1020.7hPa SW 2mph /  3.2km/h 8mph /  12.9km/h 36% 0in /  0.0mm 689 W/m2
13:10 66.7 °F /  19.3 °C 39 °F /  3.9 °C 30.1in /  1020.7hPa NW 2.9mph /  4.7km/h 9mph /  14.5km/h 36% 0in /  0.0mm 689 W/m2
13:15 66.9 °F /  19.4 °C 39.7 °F /  4.3 °C 30.1in /  1020.7hPa NNW 2mph /  3.2km/h 10mph /  16.1km/h 37% 0in /  0.0mm 686 W/m2
13:20 67.5 °F /  19.7 °C 38.8 °F /  3.8 °C 30.1in /  1020.7hPa SSE 2mph /  3.2km/h 4mph /  6.4km/h 35% 0in /  0.0mm 693 W/m2
13:25 67.6 °F /  19.8 °C 39 °F /  3.9 °C 30.1in /  1020.7hPa NNW 4mph /  6.4km/h 10mph /  16.1km/h 35% 0in /  0.0mm 693 W/m2
13:30 68 °F /  20 °C 38.7 °F /  3.7 °C 30.1in /  1020.7hPa NW 2mph /  3.2km/h 4mph /  6.4km/h 34% 0in /  0.0mm 691 W/m2
13:35 68 °F /  20 °C 38.7 °F /  3.7 °C 30.1in /  1020.7hPa WNW 4.9mph /  7.9km/h 7mph /  11.3km/h 34% 0in /  0.0mm 693 W/m2
13:40 67.8 °F /  19.9 °C 38.5 °F /  3.6 °C 30.1in /  1020.7hPa West 6mph /  9.7km/h 7mph /  11.3km/h 34% 0in /  0.0mm 694 W/m2
13:45 68.2 °F /  20.1 °C 40.3 °F /  4.6 °C 30.1in /  1020.7hPa SE 2mph /  3.2km/h 4mph /  6.4km/h 36% 0in /  0.0mm 693 W/m2
13:50 68.5 °F /  20.3 °C 38.3 °F /  3.5 °C 30.1in /  1020.7hPa WNW 4.9mph /  7.9km/h 5mph /  8km/h 33% 0in /  0.0mm 689 W/m2
13:55 68.7 °F /  20.4 °C 39.2 °F /  4 °C 30.1in /  1020.7hPa NW 2.9mph /  4.7km/h 9mph /  14.5km/h 34% 0in /  0.0mm 691 W/m2
14:00 69.1 °F /  20.6 °C 38.8 °F /  3.8 °C 30.1in /  1020.7hPa NW 4.9mph /  7.9km/h 6mph /  9.7km/h 33% 0in /  0.0mm 689 W/m2
14:06 69.1 °F /  20.6 °C 38.8 °F /  3.8 °C 30.1in /  1020.7hPa North 4mph /  6.4km/h 12mph /  19.3km/h 33% 0in /  0.0mm 687 W/m2
14:11 69.1 °F /  20.6 °C 40.3 °F /  4.6 °C 30.2in /  1021.0hPa WNW 2mph /  3.2km/h 5mph /  8km/h 35% 0in /  0.0mm 680 W/m2
14:16 69.4 °F /  20.8 °C 37.4 °F /  3 °C 30.2in /  1021.0hPa WNW 10.1mph /  16.3km/h 11mph /  17.7km/h 31% 0in /  0.0mm 677 W/m2
14:21 69.1 °F /  20.6 °C 37.9 °F /  3.3 °C 30.2in /  1021.0hPa WNW 8.1mph /  13km/h 8mph /  12.9km/h 32% 0in /  0.0mm 677 W/m2
14:26 68.7 °F /  20.4 °C 37.6 °F /  3.1 °C 30.2in /  1021.0hPa NNE 4.9mph /  7.9km/h 6mph /  9.7km/h 32% 0in /  0.0mm 679 W/m2
14:31 68.9 °F /  20.5 °C 37.8 °F /  3.2 °C 30.2in /  1021.0hPa WNW 6.9mph /  11.1km/h 8mph /  12.9km/h 32% 0in /  0.0mm 664 W/m2
14:36 69.3 °F /  20.7 °C 37.4 °F /  3 °C 30.1in /  1020.7hPa East 2.9mph /  4.7km/h 7mph /  11.3km/h 31% 0in /  0.0mm 657 W/m2
14:41 69.6 °F /  20.9 °C 37.6 °F /  3.1 °C 30.2in /  1021.0hPa NW 4mph /  6.4km/h 15mph /  24.1km/h 31% 0in /  0.0mm 657 W/m2
14:46 69.4 °F /  20.8 °C 38.3 °F /  3.5 °C 30.2in /  1021.0hPa West 10.1mph /  16.3km/h 10mph /  16.1km/h 32% 0in /  0.0mm 650 W/m2
14:51 69.4 °F /  20.8 °C 38.3 °F /  3.5 °C 30.2in /  1021.0hPa SE 2.9mph /  4.7km/h 4mph /  6.4km/h 32% 0in /  0.0mm 649 W/m2
14:56 69.4 °F /  20.8 °C 37.4 °F /  3 °C 30.2in /  1021.3hPa NW 2mph /  3.2km/h 9mph /  14.5km/h 31% 0in /  0.0mm 635 W/m2
15:01 69.4 °F /  20.8 °C 37.4 °F /  3 °C 30.2in /  1021.0hPa SW 4.9mph /  7.9km/h 9mph /  14.5km/h 31% 0in /  0.0mm 636 W/m2
15:06 70 °F /  21.1 °C 37.9 °F /  3.3 °C 30.2in /  1021.0hPa NW 2.9mph /  4.7km/h 11mph /  17.7km/h 31% 0in /  0.0mm 633 W/m2
15:11 70 °F /  21.1 °C 36.3 °F /  2.4 °C 30.2in /  1021.0hPa West 6.9mph /  11.1km/h 9mph /  14.5km/h 29% 0in /  0.0mm 624 W/m2
15:16 69.6 °F /  20.9 °C 36 °F /  2.2 °C 30.2in /  1021.3hPa WSW 11mph /  17.7km/h 11mph /  17.7km/h 29% 0in /  0.0mm 615 W/m2
15:21 69.6 °F /  20.9 °C 36.9 °F /  2.7 °C 30.2in /  1021.3hPa NNW 0.9mph /  1.4km/h 10mph /  16.1km/h 30% 0in /  0.0mm 605 W/m2
15:26 70.2 °F /  21.2 °C 37.2 °F /  2.9 °C 30.2in /  1021.0hPa North 2.9mph /  4.7km/h 4mph /  6.4km/h 30% 0in /  0.0mm 608 W/m2
15:31 70.5 °F /  21.4 °C 37.6 °F /  3.1 °C 30.2in /  1021.3hPa West 2mph /  3.2km/h 8mph /  12.9km/h 30% 0in /  0.0mm 599 W/m2
15:36 70.3 °F /  21.3 °C 36.5 °F /  2.5 °C 30.2in /  1021.3hPa ENE 2mph /  3.2km/h 5mph /  8km/h 29% 0in /  0.0mm 587 W/m2
15:41 70.3 °F /  21.3 °C 36.5 °F /  2.5 °C 30.2in /  1021.3hPa WNW 2.9mph /  4.7km/h 10mph /  16.1km/h 29% 0in /  0.0mm 580 W/m2
15:46 70.2 °F /  21.2 °C 36.5 °F /  2.5 °C 30.2in /  1021.3hPa WNW 10.1mph /  16.3km/h 10mph /  16.1km/h 29% 0in /  0.0mm 573 W/m2
15:51 70 °F /  21.1 °C 37 °F /  2.8 °C 30.2in /  1021.3hPa WNW 2mph /  3.2km/h 7mph /  11.3km/h 30% 0in /  0.0mm 561 W/m2
15:56 70.3 °F /  21.3 °C 37.4 °F /  3 °C 30.2in /  1021.0hPa NNW 2mph /  3.2km/h 3mph /  4.8km/h 30% 0in /  0.0mm 554 W/m2
16:01 70.5 °F /  21.4 °C 37.6 °F /  3.1 °C 30.2in /  1021.0hPa NNW 2mph /  3.2km/h 9mph /  14.5km/h 30% 0in /  0.0mm 547 W/m2
16:06 70.9 °F /  21.6 °C 37.9 °F /  3.3 °C 30.2in /  1021.3hPa West 2.9mph /  4.7km/h 6mph /  9.7km/h 30% 0in /  0.0mm 536 W/m2
16:11 70.9 °F /  21.6 °C 37 °F /  2.8 °C 30.2in /  1021.3hPa East 8.1mph /  13km/h 9mph /  14.5km/h 29% 0in /  0.0mm 527 W/m2
16:16 71.1 °F /  21.7 °C 38.1 °F /  3.4 °C 30.2in /  1021.0hPa Calm   7mph /  11.3km/h 30% 0in /  0.0mm 515 W/m2
16:21 71.2 °F /  21.8 °C 38.3 °F /  3.5 °C 30.2in /  1021.3hPa Calm   9mph /  14.5km/h 30% 0in /  0.0mm 506 W/m2
16:26 71.2 °F /  21.8 °C 37.4 °F /  3 °C 30.2in /  1021.3hPa WNW 6.9mph /  11.1km/h 11mph /  17.7km/h 29% 0in /  0.0mm 504 W/m2
16:31 71.2 °F /  21.8 °C 38.3 °F /  3.5 °C 30.2in /  1021.3hPa WSW 8.1mph /  13km/h 12mph /  19.3km/h 30% 0in /  0.0mm 492 W/m2
16:36 71.4 °F /  21.9 °C 36.7 °F /  2.6 °C 30.2in /  1021.3hPa WNW 6.9mph /  11.1km/h 7mph /  11.3km/h 28% 0in /  0.0mm 476 W/m2
16:41 71.1 °F /  21.7 °C 36.3 °F /  2.4 °C 30.2in /  1021.3hPa NW 0.9mph /  1.4km/h 4mph /  6.4km/h 28% 0in /  0.0mm 466 W/m2
16:46 71.2 °F /  21.8 °C 36.5 °F /  2.5 °C 30.2in /  1021.3hPa ESE 4mph /  6.4km/h 6mph /  9.7km/h 28% 0in /  0.0mm 459 W/m2
16:51 71.2 °F /  21.8 °C 36.5 °F /  2.5 °C 30.2in /  1021.3hPa NW 4mph /  6.4km/h 9mph /  14.5km/h 28% 0in /  0.0mm 441 W/m2
16:56 71.2 °F /  21.8 °C 36.5 °F /  2.5 °C 30.2in /  1021.3hPa NW 2mph /  3.2km/h 3mph /  4.8km/h 28% 0in /  0.0mm 434 W/m2
17:01 71.4 °F /  21.9 °C 35.8 °F /  2.1 °C 30.2in /  1021.3hPa NW 2.9mph /  4.7km/h 9mph /  14.5km/h 27% 0in /  0.0mm 427 W/m2
17:06 71.4 °F /  21.9 °C 35.8 °F /  2.1 °C 30.2in /  1021.3hPa East 0.9mph /  1.4km/h 2mph /  3.2km/h 27% 0in /  0.0mm 413 W/m2
17:12 71.6 °F /  22 °C 35.8 °F /  2.1 °C 30.2in /  1021.3hPa SW 0.9mph /  1.4km/h 4mph /  6.4km/h 27% 0in /  0.0mm 404 W/m2
17:17 71.8 °F /  22.1 °C 35.1 °F /  1.7 °C 30.2in /  1021.3hPa SW 8.9mph /  14.3km/h 13mph /  20.9km/h 26% 0in /  0.0mm 392 W/m2
17:22 71.4 °F /  21.9 °C 35.8 °F /  2.1 °C 30.2in /  1021.3hPa WNW 8.1mph /  13km/h 10mph /  16.1km/h 27% 0in /  0.0mm 381 W/m2
17:27 71.2 °F /  21.8 °C 34.5 °F /  1.4 °C 30.2in /  1021.3hPa WNW 2.9mph /  4.7km/h 4mph /  6.4km/h 26% 0in /  0.0mm 367 W/m2
17:32 71.2 °F /  21.8 °C 35.6 °F /  2 °C 30.2in /  1021.3hPa WNW 4mph /  6.4km/h 10mph /  16.1km/h 27% 0in /  0.0mm 355 W/m2
17:37 71.4 °F /  21.9 °C 35.8 °F /  2.1 °C 30.2in /  1021.3hPa NW 2mph /  3.2km/h 5mph /  8km/h 27% 0in /  0.0mm 341 W/m2
17:42 71.2 °F /  21.8 °C 36.5 °F /  2.5 °C 30.2in /  1021.3hPa NNW 0.9mph /  1.4km/h 3mph /  4.8km/h 28% 0in /  0.0mm 329 W/m2
17:47 71.4 °F /  21.9 °C 36.7 °F /  2.6 °C 30.2in /  1021.3hPa WNW 2.9mph /  4.7km/h 9mph /  14.5km/h 28% 0in /  0.0mm 315 W/m2
17:52 71.2 °F /  21.8 °C 36.5 °F /  2.5 °C 30.2in /  1021.3hPa WSW 0.9mph /  1.4km/h 5mph /  8km/h 28% 0in /  0.0mm 301 W/m2
17:57 71.4 °F /  21.9 °C 36.7 °F /  2.6 °C 30.2in /  1021.3hPa West 4mph /  6.4km/h 5mph /  8km/h 28% 0in /  0.0mm 283 W/m2
18:02 71.2 °F /  21.8 °C 36.5 °F /  2.5 °C 30.2in /  1021.3hPa NW 4.9mph /  7.9km/h 7mph /  11.3km/h 28% 0in /  0.0mm 276 W/m2
18:07 71.2 °F /  21.8 °C 36.5 °F /  2.5 °C 30.2in /  1021.3hPa NW 2.9mph /  4.7km/h 9mph /  14.5km/h 28% 0in /  0.0mm 265 W/m2
18:12 71.2 °F /  21.8 °C 36.5 °F /  2.5 °C 30.2in /  1021.3hPa SW 2mph /  3.2km/h 4mph /  6.4km/h 28% 0in /  0.0mm 250 W/m2
18:17 71.2 °F /  21.8 °C 36.5 °F /  2.5 °C 30.2in /  1021.3hPa NW 4.9mph /  7.9km/h 9mph /  14.5km/h 28% 0in /  0.0mm 239 W/m2
18:22 71.2 °F /  21.8 °C 37.4 °F /  3 °C 30.2in /  1021.3hPa Calm   2mph /  3.2km/h 29% 0in /  0.0mm 221 W/m2
18:27 71.2 °F /  21.8 °C 37.4 °F /  3 °C 30.2in /  1021.3hPa West 2.9mph /  4.7km/h 3mph /  4.8km/h 29% 0in /  0.0mm 211 W/m2
18:32 71.2 °F /  21.8 °C 37.4 °F /  3 °C 30.2in /  1021.3hPa WSW 2.9mph /  4.7km/h 7mph /  11.3km/h 29% 0in /  0.0mm 195 W/m2
18:37 71.2 °F /  21.8 °C 37.4 °F /  3 °C 30.2in /  1021.3hPa Calm   4mph /  6.4km/h 29% 0in /  0.0mm 181 W/m2
18:42 71.2 °F /  21.8 °C 38.3 °F /  3.5 °C 30.2in /  1021.7hPa WSW 2mph /  3.2km/h 5mph /  8km/h 30% 0in /  0.0mm 167 W/m2
18:47 71.1 °F /  21.7 °C 38.1 °F /  3.4 °C 30.2in /  1021.7hPa NW 2mph /  3.2km/h 3mph /  4.8km/h 30% 0in /  0.0mm 153 W/m2
18:52 70.9 °F /  21.6 °C 37.9 °F /  3.3 °C 30.2in /  1021.7hPa Calm   2mph /  3.2km/h 30% 0in /  0.0mm 135 W/m2
18:58 71.1 °F /  21.7 °C 38.1 °F /  3.4 °C 30.2in /  1021.7hPa West 2.9mph /  4.7km/h 6mph /  9.7km/h 30% 0in /  0.0mm 86 W/m2
19:03 70.7 °F /  21.5 °C 37.8 °F /  3.2 °C 30.2in /  1021.7hPa WNW 0.9mph /  1.4km/h 4mph /  6.4km/h 30% 0in /  0.0mm 37 W/m2
19:08 70.2 °F /  21.2 °C 38.1 °F /  3.4 °C 30.2in /  1021.7hPa WNW 0.9mph /  1.4km/h 4mph /  6.4km/h 31% 0in /  0.0mm 97 W/m2
19:13 70 °F /  21.1 °C 37.9 °F /  3.3 °C 30.2in /  1021.7hPa West 2.9mph /  4.7km/h 4mph /  6.4km/h 31% 0in /  0.0mm 58 W/m2
19:18 69.4 °F /  20.8 °C 39 °F /  3.9 °C 30.2in /  1022.0hPa West 2mph /  3.2km/h 6mph /  9.7km/h 33% 0in /  0.0mm 32 W/m2
19:23 68.7 °F /  20.4 °C 38.5 °F /  3.6 °C 30.2in /  1022.0hPa WNW 2.9mph /  4.7km/h 3mph /  4.8km/h 33% 0in /  0.0mm 28 W/m2
19:28 68.2 °F /  20.1 °C 38.7 °F /  3.7 °C 30.2in /  1022.0hPa West 2mph /  3.2km/h 2mph /  3.2km/h 34% 0in /  0.0mm 39 W/m2
19:33 67.6 °F /  19.8 °C 39.7 °F /  4.3 °C 30.2in /  1022.0hPa WNW 0.9mph /  1.4km/h 1mph /  1.6km/h 36% 0in /  0.0mm 28 W/m2
19:38 66.9 °F /  19.4 °C 39 °F /  3.9 °C 30.2in /  1022.0hPa WNW 0.9mph /  1.4km/h 3mph /  4.8km/h 36% 0in /  0.0mm 26 W/m2
19:43 66.6 °F /  19.2 °C 39.6 °F /  4.2 °C 30.2in /  1022.0hPa Calm   2mph /  3.2km/h 37% 0in /  0.0mm 21 W/m2
19:48 66 °F /  18.9 °C 39.7 °F /  4.3 °C 30.2in /  1022.0hPa Calm   1mph /  1.6km/h 38% 0in /  0.0mm 19 W/m2
19:53 65.5 °F /  18.6 °C 40.5 °F /  4.7 °C 30.2in /  1022.4hPa West 0.9mph /  1.4km/h 1mph /  1.6km/h 40% 0in /  0.0mm 18 W/m2
19:58 64.8 °F /  18.2 °C 41.2 °F /  5.1 °C 30.2in /  1022.4hPa West 2mph /  3.2km/h 2mph /  3.2km/h 42% 0in /  0.0mm 12 W/m2
20:03 64 °F /  17.8 °C 41.2 °F /  5.1 °C 30.2in /  1022.4hPa West 0.9mph /  1.4km/h 1mph /  1.6km/h 43% 0in /  0.0mm 9 W/m2
20:08 63.3 °F /  17.4 °C 41 °F /  5 °C 30.2in /  1022.4hPa Calm     44% 0in /  0.0mm 7 W/m2
20:13 62.8 °F /  17.1 °C 41.2 °F /  5.1 °C 30.2in /  1022.4hPa West 0.9mph /  1.4km/h 1mph /  1.6km/h 45% 0in /  0.0mm 5 W/m2
20:18 62.2 °F /  16.8 °C 41.2 °F /  5.1 °C 30.2in /  1022.4hPa WSW 0.9mph /  1.4km/h 2mph /  3.2km/h 46% 0in /  0.0mm 0 W/m2
20:23 61.9 °F /  16.6 °C 40.3 °F /  4.6 °C 30.2in /  1022.7hPa WSW 0.9mph /  1.4km/h 2mph /  3.2km/h 45% 0in /  0.0mm 0 W/m2
20:28 61.7 °F /  16.5 °C 40.1 °F /  4.5 °C 30.2in /  1022.7hPa WSW 2.9mph /  4.7km/h 4mph /  6.4km/h 45% 0in /  0.0mm 0 W/m2
20:33 61.7 °F /  16.5 °C 41.2 °F /  5.1 °C 30.2in /  1022.7hPa Calm   3mph /  4.8km/h 47% 0in /  0.0mm 0 W/m2
20:38 61.5 °F /  16.4 °C 41.2 °F /  5.1 °C 30.2in /  1022.7hPa Calm   1mph /  1.6km/h 47% 0in /  0.0mm 0 W/m2
20:43 61.2 °F /  16.2 °C 41.4 °F /  5.2 °C 30.2in /  1023.0hPa Calm   1mph /  1.6km/h 48% 0in /  0.0mm 0 W/m2
20:48 60.6 °F /  15.9 °C 40.8 °F /  4.9 °C 30.2in /  1023.0hPa Calm   1mph /  1.6km/h 48% 0in /  0.0mm 0 W/m2
20:54 60.3 °F /  15.7 °C 40.5 °F /  4.7 °C 30.2in /  1023.0hPa Calm   1mph /  1.6km/h 48% 0in /  0.0mm 0 W/m2
20:59 59.7 °F /  15.4 °C 41 °F /  5 °C 30.2in /  1023.4hPa Calm     50% 0in /  0.0mm 0 W/m2
21:04 59.4 °F /  15.2 °C 41.2 °F /  5.1 °C 30.2in /  1023.4hPa Calm     51% 0in /  0.0mm 0 W/m2
21:09 58.6 °F /  14.8 °C 40.6 °F /  4.8 °C 30.2in /  1023.4hPa WNW 0.9mph /  1.4km/h 1mph /  1.6km/h 51% 0in /  0.0mm 0 W/m2
21:14 58.5 °F /  14.7 °C 40.5 °F /  4.7 °C 30.2in /  1023.4hPa West 2mph /  3.2km/h 3mph /  4.8km/h 51% 0in /  0.0mm 0 W/m2
21:19 58.5 °F /  14.7 °C 40.5 °F /  4.7 °C 30.2in /  1023.4hPa West 2mph /  3.2km/h 2mph /  3.2km/h 51% 0in /  0.0mm 0 W/m2
21:24 58.6 °F /  14.8 °C 40.6 °F /  4.8 °C 30.2in /  1023.7hPa WNW 2mph /  3.2km/h 3mph /  4.8km/h 51% 0in /  0.0mm 0 W/m2
21:29 58.8 °F /  14.9 °C 40.3 °F /  4.6 °C 30.2in /  1023.7hPa West 0.9mph /  1.4km/h 3mph /  4.8km/h 50% 0in /  0.0mm 0 W/m2
21:34 59.2 °F /  15.1 °C 40.6 °F /  4.8 °C 30.2in /  1023.7hPa WSW 4.9mph /  7.9km/h 5mph /  8km/h 50% 0in /  0.0mm 0 W/m2
21:39 60.1 °F /  15.6 °C 40.8 °F /  4.9 °C 30.2in /  1023.7hPa West 2mph /  3.2km/h 4mph /  6.4km/h 49% 0in /  0.0mm 0 W/m2
21:44 60.4 °F /  15.8 °C 40.6 °F /  4.8 °C 30.2in /  1023.7hPa West 2.9mph /  4.7km/h 7mph /  11.3km/h 48% 0in /  0.0mm 0 W/m2
21:49 60.6 °F /  15.9 °C 40.8 °F /  4.9 °C 30.2in /  1023.7hPa West 2mph /  3.2km/h 3mph /  4.8km/h 48% 0in /  0.0mm 0 W/m2
21:54 60.8 °F /  16 °C 41.5 °F /  5.3 °C 30.2in /  1023.7hPa West 2.9mph /  4.7km/h 7mph /  11.3km/h 49% 0in /  0.0mm 0 W/m2
21:59 61 °F /  16.1 °C 41.7 °F /  5.4 °C 30.2in /  1024.0hPa WNW 2.9mph /  4.7km/h 4mph /  6.4km/h 49% 0in /  0.0mm 0 W/m2
22:04 61.2 °F /  16.2 °C 41.4 °F /  5.2 °C 30.2in /  1024.0hPa West 2mph /  3.2km/h 6mph /  9.7km/h 48% 0in /  0.0mm 0 W/m2
22:09 61 °F /  16.1 °C 41.7 °F /  5.4 °C 30.2in /  1024.0hPa WNW 2.9mph /  4.7km/h 5mph /  8km/h 49% 0in /  0.0mm 0 W/m2
22:14 61 °F /  16.1 °C 41.7 °F /  5.4 °C 30.2in /  1024.0hPa West 2.9mph /  4.7km/h 7mph /  11.3km/h 49% 0in /  0.0mm 0 W/m2
22:19 61 °F /  16.1 °C 42.3 °F /  5.7 °C 30.2in /  1024.0hPa WNW 2mph /  3.2km/h 9mph /  14.5km/h 50% 0in /  0.0mm 0 W/m2
22:24 61.2 °F /  16.2 °C 42.4 °F /  5.8 °C 30.3in /  1024.4hPa NW 0.9mph /  1.4km/h 7mph /  11.3km/h 50% 0in /  0.0mm 0 W/m2
22:29 61 °F /  16.1 °C 42.3 °F /  5.7 °C 30.3in /  1024.4hPa WNW 0.9mph /  1.4km/h 2mph /  3.2km/h 50% 0in /  0.0mm 0 W/m2
22:34 60.4 °F /  15.8 °C 42.3 °F /  5.7 °C 30.3in /  1024.4hPa Calm   7mph /  11.3km/h 51% 0in /  0.0mm 0 W/m2
22:39 59.5 °F /  15.3 °C 41.9 °F /  5.5 °C 30.3in /  1024.4hPa SE 2mph /  3.2km/h 3mph /  4.8km/h 52% 0in /  0.0mm 0 W/m2
22:44 58.6 °F /  14.8 °C 41.5 °F /  5.3 °C 30.3in /  1024.4hPa ESE 2mph /  3.2km/h 4mph /  6.4km/h 53% 0in /  0.0mm 0 W/m2
22:49 57.9 °F /  14.4 °C 41.9 °F /  5.5 °C 30.3in /  1024.7hPa ESE 2mph /  3.2km/h 3mph /  4.8km/h 55% 0in /  0.0mm 0 W/m2
22:54 57.4 °F /  14.1 °C 42.3 °F /  5.7 °C 30.3in /  1024.7hPa ESE 0.9mph /  1.4km/h 1mph /  1.6km/h 57% 0in /  0.0mm 0 W/m2
22:59 56.7 °F /  13.7 °C 42.1 °F /  5.6 °C 30.3in /  1024.7hPa ESE 3mph /  4.8km/h 3mph /  4.8km/h 58% 0in /  0.0mm 0 W/m2
23:04 56.1 °F /  13.4 °C 42.4 °F /  5.8 °C 30.3in /  1024.7hPa ESE 0.9mph /  1.4km/h 2mph /  3.2km/h 60% 0in /  0.0mm 0 W/m2
23:09 55.8 °F /  13.2 °C 43 °F /  6.1 °C 30.3in /  1024.7hPa Calm   1mph /  1.6km/h 62% 0in /  0.0mm 0 W/m2
23:14 55 °F /  12.8 °C 42.6 °F /  5.9 °C 30.3in /  1024.7hPa ESE 0.9mph /  1.4km/h 1mph /  1.6km/h 63% 0in /  0.0mm 0 W/m2
23:19 54.7 °F /  12.6 °C 42.8 °F /  6 °C 30.3in /  1024.7hPa ESE 2mph /  3.2km/h 2mph /  3.2km/h 64% 0in /  0.0mm 0 W/m2
23:24 54.3 °F /  12.4 °C 42.8 °F /  6 °C 30.3in /  1024.7hPa Calm   1mph /  1.6km/h 65% 0in /  0.0mm 0 W/m2
23:29 54.1 °F /  12.3 °C 43 °F /  6.1 °C 30.3in /  1024.7hPa ESE 0.9mph /  1.4km/h 2mph /  3.2km/h 66% 0in /  0.0mm 0 W/m2
23:34 53.8 °F /  12.1 °C 43.2 °F /  6.2 °C 30.3in /  1024.4hPa Calm   2mph /  3.2km/h 67% 0in /  0.0mm 0 W/m2
23:39 53.4 °F /  11.9 °C 43.2 °F /  6.2 °C 30.3in /  1024.4hPa Calm   1mph /  1.6km/h 68% 0in /  0.0mm 0 W/m2
23:44 53.2 °F /  11.8 °C 43.3 °F /  6.3 °C 30.3in /  1024.4hPa Calm   2mph /  3.2km/h 69% 0in /  0.0mm 0 W/m2
23:49 53.1 °F /  11.7 °C 43.5 °F /  6.4 °C 30.3in /  1024.7hPa Calm   2mph /  3.2km/h 70% 0in /  0.0mm 0 W/m2
23:54 52.9 °F /  11.6 °C 43.7 °F /  6.5 °C 30.3in /  1024.7hPa Calm   1mph /  1.6km/h 71% 0in /  0.0mm 0 W/m2
23:59 52.7 °F /  11.5 °C 43.9 °F /  6.6 °C 30.3in /  1024.7hPa ESE 0.9mph /  1.4km/h 2mph /  3.2km/h 72% 0in /  0.0mm 0 W/m2
Juneau County Weather
Compliments of Weather Underground - 4 mb